Time;durP1;ratioP1;P1;durP2;ratioP2;P2;SDS_P1;SDS_P2;PMS_P1;PMS_P2;Temp;Humidity;BMP_temperature;BMP_pressure;BME280_temperature;BME280_humidity;BME280_pressure;Samples;Min_cycle;Max_cycle;Signal;HPM_P1;HPM_P2
2022/07/31 00:03:26;;;;;;;17.77;10.88;;;;;;;;;;4252362;82;28592;-83
2022/07/31 00:09:35;;;;;;;14.90;9.68;;;;;;;;;;4247975;82;28499;-83
2022/07/31 00:15:42;;;;;;;12.25;8.53;;;;;;;;;;4271463;82;28504;-82
2022/07/31 00:21:48;;;;;;;16.52;8.95;;;;;;;;;;4264488;82;28481;-82
2022/07/31 00:27:49;;;;;;;12.15;8.20;;;;;;;;;;4239815;82;28520;-81
2022/07/31 00:33:56;;;;;;;11.55;7.83;;;;;;;;;;4245557;82;28574;-83
2022/07/31 00:39:57;;;;;;;;;;;;;;;;;;4196181;83;28511;-82
2022/07/31 00:45:58;;;;;;;8.60;5.92;;;;;;;;;;4202108;83;20551;-81
2022/07/31 00:51:59;;;;;;;7.58;4.85;;;;;;;;;;4236541;83;28528;-82
2022/07/31 00:58:06;;;;;;;10.43;4.42;;;;;;;;;;4239497;84;28477;-81
2022/07/31 01:04:15;;;;;;;7.08;4.35;;;;;;;;;;4229338;84;28489;-82
2022/07/31 01:10:24;;;;;;;8.03;4.80;;;;;;;;;;4239185;82;28564;-82
2022/07/31 01:16:30;;;;;;;8.75;4.62;;;;;;;;;;4321480;82;28511;-80
2022/07/31 01:22:42;;;;;;;6.95;4.75;;;;;;;;;;4235983;82;28460;-81
2022/07/31 01:36:05;;;;;;;7.40;4.28;;;;;;;;;;4223424;82;28531;-83
2022/07/31 01:42:07;;;;;;;4.58;3.27;;;;;;;;;;4219568;82;28566;-82
2022/07/31 01:48:16;;;;;;;4.00;2.77;;;;;;;;;;4233180;84;28497;-80
2022/07/31 01:54:23;;;;;;;3.72;2.35;;;;;;;;;;4280354;82;28507;-82
2022/07/31 02:00:30;;;;;;;3.95;2.30;;;;;;;;;;4283504;82;28468;-81
2022/07/31 02:06:39;;;;;;;4.47;2.02;;;;;;;;;;4261130;83;28473;-82
2022/07/31 02:12:46;;;;;;;2.27;1.95;;;;;;;;;;4249684;82;28497;-81
2022/07/31 02:18:54;;;;;;;3.35;2.05;;;;;;;;;;4238205;82;28489;-81
2022/07/31 02:25:04;;;;;;;3.42;2.10;;;;;;;;;;4255870;82;28470;-82
2022/07/31 02:31:14;;;;;;;2.10;1.75;;;;;;;;;;4246837;83;28477;-82
2022/07/31 02:37:17;;;;;;;2.67;1.55;;;;;;;;;;4277004;82;28584;-82
2022/07/31 02:43:27;;;;;;;2.58;1.22;;;;;;;;;;4220505;82;28481;-82
2022/07/31 02:49:35;;;;;;;2.00;1.12;;;;;;;;;;4245132;82;28476;-82
2022/07/31 02:55:37;;;;;;;1.65;1.00;;;;;;;;;;4261673;82;28505;-82
2022/07/31 03:01:43;;;;;;;2.90;1.00;;;;;;;;;;4227729;82;28454;-82
2022/07/31 03:07:51;;;;;;;1.37;0.80;;;;;;;;;;4240316;82;28527;-82
2022/07/31 03:13:58;;;;;;;1.07;0.55;;;;;;;;;;4248427;82;28504;-81
2022/07/31 03:20:06;;;;;;;1.55;0.55;;;;;;;;;;4093851;85;28506;-81
2022/07/31 03:26:14;;;;;;;1.15;0.70;;;;;;;;;;4124148;85;28494;-82
2022/07/31 03:32:14;;;;;;;0.50;0.50;;;;;;;;;;4173953;83;28530;-81
2022/07/31 03:38:15;;;;;;;0.88;0.68;;;;;;;;;;4117681;84;28522;-82
2022/07/31 03:44:23;;;;;;;1.30;0.47;;;;;;;;;;4124955;85;28486;-82
2022/07/31 03:50:31;;;;;;;2.00;0.70;;;;;;;;;;4261109;82;28450;-82
2022/07/31 03:56:31;;;;;;;;;;;;;;;;;;4280721;82;28504;-82
2022/07/31 04:02:44;;;;;;;2.27;0.60;;;;;;;;;;4251194;82;20251;-81
2022/07/31 04:09:10;;;;;;;1.15;0.50;;;;;;;;;;4231201;83;28477;-82
2022/07/31 04:15:17;;;;;;;0.80;0.60;;;;;;;;;;4160833;84;28487;-80
2022/07/31 04:21:26;;;;;;;1.27;0.60;;;;;;;;;;4166213;84;28475;-80
2022/07/31 04:27:27;;;;;;;1.37;0.50;;;;;;;;;;4252408;82;28509;-79
2022/07/31 04:33:34;;;;;;;0.55;0.47;;;;;;;;;;4244504;82;28456;-82
2022/07/31 04:39:35;;;;;;;1.10;0.53;;;;;;;;;;4243790;82;28560;-80
2022/07/31 04:45:41;;;;;;;1.50;0.40;;;;;;;;;;4252737;82;28501;-81
2022/07/31 04:51:49;;;;;;;0.50;0.30;;;;;;;;;;4227729;82;28527;-80
2022/07/31 04:57:51;;;;;;;0.70;0.40;;;;;;;;;;4165654;84;28498;-79
2022/07/31 05:03:52;;;;;;;1.30;0.90;;;;;;;;;;4169488;84;28479;-81
2022/07/31 05:09:59;;;;;;;1.62;0.70;;;;;;;;;;4184256;83;28507;-80
2022/07/31 05:16:06;;;;;;;0.42;0.42;;;;;;;;;;4062279;85;28499;-81
2022/07/31 05:22:07;;;;;;;1.25;0.60;;;;;;;;;;4091063;85;28487;-84
2022/07/31 05:28:18;;;;;;;2.80;0.80;;;;;;;;;;4102623;85;28553;-83
2022/07/31 05:34:24;;;;;;;0.80;0.72;;;;;;;;;;4116017;85;28443;-85
2022/07/31 05:40:25;;;;;;;;;;;;;;;;;;4117138;85;28533;-84
2022/07/31 05:46:51;;;;;;;2.85;1.00;;;;;;;;;;4051002;87;20544;-84
2022/07/31 05:52:59;;;;;;;3.60;1.20;;;;;;;;;;4027015;87;28466;-82
2022/07/31 05:59:13;;;;;;;1.60;1.02;;;;;;;;;;4010898;87;28495;-82
2022/07/31 06:05:20;;;;;;;0.70;0.70;;;;;;;;;;4136881;84;28509;-81
2022/07/31 06:11:26;;;;;;;1.50;0.70;;;;;;;;;;4133711;84;28540;-85
2022/07/31 06:17:27;;;;;;;2.25;0.50;;;;;;;;;;4162632;84;28568;-79
2022/07/31 06:23:28;;;;;;;0.37;0.30;;;;;;;;;;4155353;84;28515;-80
2022/07/31 06:29:38;;;;;;;1.35;0.40;;;;;;;;;;4169616;84;28529;-81
2022/07/31 06:35:45;;;;;;;0.82;0.33;;;;;;;;;;4132421;84;28506;-82
2022/07/31 06:42:00;;;;;;;0.30;0.30;;;;;;;;;;4159278;82;28533;-81
2022/07/31 06:48:13;;;;;;;0.30;0.20;;;;;;;;;;4251883;82;28521;-82
2022/07/31 06:54:16;;;;;;;0.53;0.10;;;;;;;;;;4251180;82;28572;-79
2022/07/31 07:00:23;;;;;;;0.20;0.20;;;;;;;;;;4237109;82;28476;-81
2022/07/31 07:06:30;;;;;;;0.50;0.30;;;;;;;;;;4246114;82;28555;-81
2022/07/31 07:12:32;;;;;;;0.28;0.20;;;;;;;;;;4270958;82;28516;-83
2022/07/31 07:18:41;;;;;;;0.30;0.30;;;;;;;;;;4291217;82;28453;-85
2022/07/31 07:24:42;;;;;;;0.75;0.20;;;;;;;;;;4258167;82;28496;-81
2022/07/31 07:30:45;;;;;;;1.00;0.20;;;;;;;;;;4238987;82;28492;-84
2022/07/31 07:36:54;;;;;;;0.80;0.30;;;;;;;;;;4249977;82;28513;-87
2022/07/31 07:42:56;;;;;;;1.95;0.47;;;;;;;;;;4223174;82;28522;-86
2022/07/31 07:49:04;;;;;;;0.88;0.35;;;;;;;;;;4092612;85;28490;-85
2022/07/31 07:55:18;;;;;;;1.20;0.60;;;;;;;;;;4244082;82;28515;-85
2022/07/31 08:01:37;;;;;;;0.55;0.37;;;;;;;;;;4238096;82;28465;-84
2022/07/31 08:07:49;;;;;;;1.20;0.62;;;;;;;;;;4245788;82;28521;-83
2022/07/31 08:14:15;;;;;;;0.60;0.60;;;;;;;;;;4284289;82;28532;-84
2022/07/31 08:20:36;;;;;;;0.93;0.70;;;;;;;;;;4119232;84;28502;-85
2022/07/31 08:33:11;;;;;;;1.00;0.63;;;;;;;;;;4243289;82;28474;-90
2022/07/31 08:39:19;;;;;;;0.75;0.60;;;;;;;;;;4243159;82;28497;-88
2022/07/31 08:45:27;;;;;;;1.05;0.53;;;;;;;;;;4252071;82;28476;-87
2022/07/31 08:51:38;;;;;;;0.60;0.60;;;;;;;;;;4219741;81;28497;-89
2022/07/31 08:57:47;;;;;;;0.70;0.70;;;;;;;;;;4262304;82;28539;-86
2022/07/31 09:03:54;;;;;;;0.90;0.60;;;;;;;;;;4278187;82;28456;-87
2022/07/31 09:10:02;;;;;;;4.05;0.70;;;;;;;;;;4271710;82;28484;-86
2022/07/31 09:16:12;;;;;;;1.37;0.50;;;;;;;;;;4282083;82;28540;-81
2022/07/31 09:29:25;;;;;;;0.78;0.62;;;;;;;;;;4274668;82;28524;-81
2022/07/31 09:35:38;;;;;;;0.68;0.68;;;;;;;;;;4254486;82;28562;-83
2022/07/31 09:41:36;;;;;;;1.00;0.82;;;;;;;;;;4265184;82;28541;-84
2022/07/31 09:47:48;;;;;;;1.10;0.70;;;;;;;;;;4271826;82;28621;-84
2022/07/31 09:53:54;;;;;;;1.02;0.93;;;;;;;;;;4277566;82;28514;-83
2022/07/31 10:00:06;;;;;;;2.15;0.85;;;;;;;;;;4221197;82;28511;-84
2022/07/31 10:06:16;;;;;;;1.70;0.88;;;;;;;;;;4280616;82;28612;-83
2022/07/31 10:12:27;;;;;;;1.05;0.95;;;;;;;;;;4263868;82;28512;-82
2022/07/31 10:18:36;;;;;;;1.30;1.20;;;;;;;;;;4242970;82;28520;-83
2022/07/31 10:24:47;;;;;;;1.30;1.20;;;;;;;;;;4234246;82;28520;-84
2022/07/31 10:30:49;;;;;;;1.85;1.42;;;;;;;;;;4261270;82;28480;-81
2022/07/31 10:36:56;;;;;;;1.35;1.20;;;;;;;;;;4276737;82;28550;-83
2022/07/31 10:43:12;;;;;;;2.22;1.00;;;;;;;;;;4259853;82;28572;-82
2022/07/31 10:49:13;;;;;;;2.00;1.17;;;;;;;;;;4241110;83;28535;-81
2022/07/31 10:55:38;;;;;;;1.20;1.10;;;;;;;;;;4251213;82;28524;-82
2022/07/31 11:01:58;;;;;;;1.37;1.27;;;;;;;;;;4238131;82;28524;-82
2022/07/31 11:08:09;;;;;;;1.55;1.02;;;;;;;;;;4176393;82;28661;-83
2022/07/31 11:14:31;;;;;;;1.45;1.20;;;;;;;;;;4273763;82;28587;-84
2022/07/31 11:20:34;;;;;;;1.15;1.05;;;;;;;;;;4209811;82;28552;-82
2022/07/31 11:26:42;;;;;;;0.93;0.80;;;;;;;;;;4227753;83;28458;-83
2022/07/31 11:39:57;;;;;;;0.87;0.70;;;;;;;;;;4232092;82;28485;-82
2022/07/31 11:45:59;;;;;;;1.50;0.72;;;;;;;;;;4255829;81;28493;-84
2022/07/31 11:52:01;;;;;;;2.47;0.80;;;;;;;;;;4247803;82;28503;-82
2022/07/31 11:58:02;;;;;;;1.15;0.80;;;;;;;;;;4267766;82;28528;-83
2022/07/31 12:04:10;;;;;;;1.35;1.12;;;;;;;;;;4259233;82;28593;-79
2022/07/31 12:10:12;;;;;;;1.15;0.72;;;;;;;;;;4254873;82;28536;-83
2022/07/31 12:16:18;;;;;;;1.15;0.72;;;;;;;;;;4249015;82;28488;-82
2022/07/31 12:22:21;;;;;;;1.50;0.65;;;;;;;;;;4271178;81;28556;-84
2022/07/31 12:28:29;;;;;;;0.72;0.50;;;;;;;;;;4171693;84;28470;-83
2022/07/31 12:34:37;;;;;;;0.70;0.53;;;;;;;;;;4254562;82;28500;-89
2022/07/31 12:40:38;;;;;;;1.12;0.35;;;;;;;;;;4243519;82;28556;-89
2022/07/31 12:46:39;;;;;;;0.60;0.53;;;;;;;;;;4234567;82;28507;-84
2022/07/31 12:52:40;;;;;;;1.35;0.50;;;;;;;;;;4246897;82;28564;-83
2022/07/31 12:58:47;;;;;;;0.57;0.40;;;;;;;;;;4263440;82;28520;-84
2022/07/31 13:04:48;;;;;;;1.02;0.50;;;;;;;;;;4263643;82;28487;-83
2022/07/31 13:10:54;;;;;;;0.33;0.30;;;;;;;;;;4264883;82;28524;-81
2022/07/31 13:17:04;;;;;;;;;;;;;;;;;;4250867;82;28481;-83
2022/07/31 13:23:06;;;;;;;1.25;0.42;;;;;;;;;;4243382;83;20219;-84
2022/07/31 13:29:14;;;;;;;1.90;0.40;;;;;;;;;;4245957;82;28520;-85
2022/07/31 13:35:17;;;;;;;0.50;0.40;;;;;;;;;;4248904;81;28521;-83
2022/07/31 13:41:22;;;;;;;0.90;0.30;;;;;;;;;;4246516;82;28501;-86
2022/07/31 13:47:23;;;;;;;0.80;0.50;;;;;;;;;;4240256;82;33352;-82
2022/07/31 13:53:24;;;;;;;0.57;0.57;;;;;;;;;;4239933;82;28465;-83
2022/07/31 13:59:28;;;;;;;1.25;0.60;;;;;;;;;;4237331;82;28501;-88
2022/07/31 14:05:29;;;;;;;1.20;0.80;;;;;;;;;;4259821;82;28524;-86
2022/07/31 14:11:30;;;;;;;0.78;0.78;;;;;;;;;;4239241;82;28465;-84
2022/07/31 14:17:31;;;;;;;1.10;0.98;;;;;;;;;;4225540;82;28511;-84
2022/07/31 14:23:32;;;;;;;1.67;1.20;;;;;;;;;;4265106;82;28518;-84
2022/07/31 14:29:32;;;;;;;1.62;1.40;;;;;;;;;;4267588;82;28572;-82
2022/07/31 14:35:41;;;;;;;1.62;1.50;;;;;;;;;;4252990;82;28496;-83
2022/07/31 14:41:42;;;;;;;1.87;1.67;;;;;;;;;;4252491;82;28505;-84
2022/07/31 14:47:45;;;;;;;2.85;2.02;;;;;;;;;;4253970;82;28729;-83
2022/07/31 14:53:52;;;;;;;2.62;2.20;;;;;;;;;;4231311;82;28543;-84
2022/07/31 14:59:54;;;;;;;2.95;2.30;;;;;;;;;;4216802;82;28528;-84
2022/07/31 15:05:54;;;;;;;3.40;2.52;;;;;;;;;;4252865;82;28500;-83
2022/07/31 15:11:55;;;;;;;3.50;3.10;;;;;;;;;;4246679;82;28519;-82
2022/07/31 15:17:56;;;;;;;3.37;3.08;;;;;;;;;;4245364;82;28467;-86
2022/07/31 15:23:57;;;;;;;3.50;3.10;;;;;;;;;;4256041;82;28488;-81
2022/07/31 15:30:03;;;;;;;3.87;3.30;;;;;;;;;;4245013;82;28529;-82
2022/07/31 15:36:05;;;;;;;3.50;2.77;;;;;;;;;;4259138;82;28548;-82
2022/07/31 15:42:06;;;;;;;3.10;2.80;;;;;;;;;;4218383;82;28588;-84
2022/07/31 15:48:14;;;;;;;3.90;2.70;;;;;;;;;;4155832;84;28547;-86
2022/07/31 15:54:21;;;;;;;2.85;2.62;;;;;;;;;;4171238;84;28499;-85
2022/07/31 16:00:30;;;;;;;3.27;2.80;;;;;;;;;;4147480;84;28492;-83
2022/07/31 16:06:36;;;;;;;3.95;2.40;;;;;;;;;;4172101;83;28504;-85
2022/07/31 16:12:44;;;;;;;4.50;2.40;;;;;;;;;;4177214;83;28535;-83
2022/07/31 16:18:45;;;;;;;3.42;2.15;;;;;;;;;;4153719;84;28506;-82
2022/07/31 16:24:54;;;;;;;1.80;1.70;;;;;;;;;;4148676;84;28516;-83
2022/07/31 16:30:55;;;;;;;2.72;2.08;;;;;;;;;;4167253;84;28492;-91
2022/07/31 16:37:03;;;;;;;2.72;2.40;;;;;;;;;;4248179;82;28532;-86
2022/07/31 16:43:06;;;;;;;2.72;2.10;;;;;;;;;;4258618;82;28518;-85
2022/07/31 16:49:07;;;;;;;3.50;2.12;;;;;;;;;;4252302;82;28477;-83
2022/07/31 17:02:26;;;;;;;3.67;2.80;;;;;;;;;;4278448;82;28523;-84
2022/07/31 17:08:28;;;;;;;3.75;2.62;;;;;;;;;;4286644;82;28575;-84
2022/07/31 17:14:35;;;;;;;5.65;3.30;;;;;;;;;;4253638;82;28473;-85
2022/07/31 17:20:36;;;;;;;3.42;2.20;;;;;;;;;;4250877;82;28452;-87
2022/07/31 17:26:45;;;;;;;4.00;2.55;;;;;;;;;;4251819;82;28528;-83
2022/07/31 17:32:51;;;;;;;4.15;2.72;;;;;;;;;;4264171;82;28491;-83
2022/07/31 17:38:58;;;;;;;4.85;2.55;;;;;;;;;;4266751;82;28469;-83
2022/07/31 17:45:01;;;;;;;3.08;2.75;;;;;;;;;;4252193;82;28702;-82
2022/07/31 17:51:09;;;;;;;5.12;3.25;;;;;;;;;;4270144;82;28916;-84
2022/07/31 17:57:15;;;;;;;5.75;3.08;;;;;;;;;;4259456;82;28504;-87
2022/07/31 18:03:16;;;;;;;5.53;3.65;;;;;;;;;;4257107;82;28507;-84
2022/07/31 18:09:19;;;;;;;5.05;2.70;;;;;;;;;;4264061;82;28526;-86
2022/07/31 18:15:26;;;;;;;5.83;3.65;;;;;;;;;;4257860;82;28520;-89
2022/07/31 18:21:32;;;;;;;6.33;4.12;;;;;;;;;;4270762;82;28509;-89
2022/07/31 18:27:39;;;;;;;8.18;3.90;;;;;;;;;;4260701;82;28451;-84
2022/07/31 18:33:41;;;;;;;4.87;3.50;;;;;;;;;;4276321;82;28531;-82
2022/07/31 18:39:42;;;;;;;8.15;3.95;;;;;;;;;;4246450;82;28517;-83
2022/07/31 18:45:43;;;;;;;7.70;4.20;;;;;;;;;;4095523;85;28482;-85
2022/07/31 18:51:49;;;;;;;6.15;3.77;;;;;;;;;;4141360;84;28545;-84
2022/07/31 18:57:50;;;;;;;6.15;4.47;;;;;;;;;;4228872;82;28540;-83
2022/07/31 19:03:52;;;;;;;4.83;3.42;;;;;;;;;;4238902;82;28619;-83
2022/07/31 19:09:53;;;;;;;6.37;4.15;;;;;;;;;;4223425;82;28597;-85
2022/07/31 19:15:57;;;;;;;6.75;4.00;;;;;;;;;;4240083;82;28550;-85
2022/07/31 19:21:58;;;;;;;5.87;3.52;;;;;;;;;;4248394;82;28461;-82
2022/07/31 19:27:59;;;;;;;5.12;3.92;;;;;;;;;;4250220;82;28449;-87
2022/07/31 19:34:00;;;;;;;6.60;3.80;;;;;;;;;;4246449;83;28472;-87
2022/07/31 19:40:01;;;;;;;7.28;3.60;;;;;;;;;;4249807;82;28565;-85
2022/07/31 19:46:02;;;;;;;6.10;3.98;;;;;;;;;;4248629;83;28480;-84
2022/07/31 19:52:03;;;;;;;7.53;4.00;;;;;;;;;;4247513;83;28489;-86
2022/07/31 19:58:04;;;;;;;6.10;3.77;;;;;;;;;;4234519;82;28495;-83
2022/07/31 20:04:06;;;;;;;6.00;3.87;;;;;;;;;;4253595;82;28527;-83
2022/07/31 20:10:12;;;;;;;5.45;3.52;;;;;;;;;;4237577;82;28497;-83
2022/07/31 20:16:14;;;;;;;4.37;3.22;;;;;;;;;;4247958;82;28519;-83
2022/07/31 20:22:15;;;;;;;5.92;4.03;;;;;;;;;;4248326;83;28509;-83
2022/07/31 20:28:16;;;;;;;7.33;3.77;;;;;;;;;;4251094;83;28507;-84
2022/07/31 20:34:17;;;;;;;7.72;3.70;;;;;;;;;;4246599;82;28499;-83
2022/07/31 20:40:18;;;;;;;6.80;3.75;;;;;;;;;;4257959;82;28447;-83
2022/07/31 20:46:19;;;;;;;6.28;3.87;;;;;;;;;;4245526;82;28521;-82
2022/07/31 20:52:20;;;;;;;5.08;3.70;;;;;;;;;;4268622;82;28442;-82
2022/07/31 20:58:21;;;;;;;6.25;3.87;;;;;;;;;;4245723;82;28507;-83
2022/07/31 21:04:22;;;;;;;6.47;3.85;;;;;;;;;;4242199;82;28488;-82
2022/07/31 21:10:25;;;;;;;8.50;4.15;;;;;;;;;;4256541;82;28438;-82
2022/07/31 21:16:26;;;;;;;5.90;3.80;;;;;;;;;;4241351;82;28518;-82
2022/07/31 21:22:27;;;;;;;5.90;4.08;;;;;;;;;;4238572;82;28541;-83
2022/07/31 21:28:28;;;;;;;7.22;3.92;;;;;;;;;;4255440;82;28593;-83
2022/07/31 21:34:29;;;;;;;8.05;4.58;;;;;;;;;;4254111;82;28519;-85
2022/07/31 21:40:32;;;;;;;6.80;4.20;;;;;;;;;;4285169;82;29122;-85
2022/07/31 21:46:34;;;;;;;5.87;4.62;;;;;;;;;;4272996;82;28499;-84
2022/07/31 21:52:35;;;;;;;7.70;4.30;;;;;;;;;;4244113;83;28480;-85
2022/07/31 21:58:39;;;;;;;6.58;4.87;;;;;;;;;;4231117;83;28465;-85
2022/07/31 22:07:30;;;;;;;6.53;4.60;;;;;;;;;;4250896;82;28479;-84
2022/07/31 22:10:43;;;;;;;9.68;5.20;;;;;;;;;;4245472;82;28507;-85
2022/07/31 22:16:43;;;;;;;7.95;5.30;;;;;;;;;;4267210;82;28514;-85
2022/07/31 22:22:45;;;;;;;5.28;4.65;;;;;;;;;;4238810;83;28516;-85
2022/07/31 22:28:46;;;;;;;6.53;4.80;;;;;;;;;;4246823;82;28531;-86
2022/07/31 22:34:47;;;;;;;7.95;4.47;;;;;;;;;;4250619;82;28550;-86
2022/07/31 22:40:48;;;;;;;5.78;4.42;;;;;;;;;;4147856;84;28491;-86
2022/07/31 22:46:50;;;;;;;6.12;4.17;;;;;;;;;;4167421;84;28533;-86
2022/07/31 22:52:51;;;;;;;5.67;4.03;;;;;;;;;;4254423;83;28465;-85
2022/07/31 22:58:51;;;;;;;7.53;4.30;;;;;;;;;;4244007;83;28505;-85
2022/07/31 23:04:53;;;;;;;5.90;4.22;;;;;;;;;;4235643;83;28438;-85
2022/07/31 23:10:54;;;;;;;6.97;4.17;;;;;;;;;;4236318;83;28522;-85
2022/07/31 23:16:58;;;;;;;7.90;4.17;;;;;;;;;;4247175;83;28444;-85
2022/07/31 23:22:59;;;;;;;7.37;4.58;;;;;;;;;;4252699;82;28515;-85
2022/07/31 23:29:00;;;;;;;4.85;4.20;;;;;;;;;;4238742;83;28507;-85
2022/07/31 23:35:01;;;;;;;6.33;4.08;;;;;;;;;;4240150;82;28518;-84
2022/07/31 23:41:02;;;;;;;6.75;4.37;;;;;;;;;;4247582;82;28493;-85
2022/07/31 23:47:03;;;;;;;6.95;4.60;;;;;;;;;;4247753;82;28477;-85
2022/07/31 23:53:04;;;;;;;7.67;5.17;;;;;;;;;;4244969;82;28449;-84
2022/07/31 23:59:05;;;;;;;8.08;5.37;;;;;;;;;;4232593;82;28519;-85
